Brigadier Mayor D Cesar Raul Ojeda Airport


Codes: SAOU/LUQ
Name: Brigadier Mayor D Cesar Raul Ojeda Airport
City: San Luis
Country: Argentina
Elevation: 2328 ft.

Photos at Brigadier Mayor D Cesar Raul Ojeda Airport


   Photos courtesy of SpottingLog. You can add your own sightings and photos by signing up for a free trial today.



No photos found.

Weather at Brigadier Mayor D Cesar Raul Ojeda Airport


Time (UTC)DescriptionTempratureWindCloud coverageVisibilityPressureHumidity
21-Jun-2024 12:00Broken Clouds12°C9 mph, N73%10000m1005hPa87%
21-Jun-2024 15:00Broken Clouds14°C22 mph, NW61%10000m1005hPa79%
21-Jun-2024 18:00Broken Clouds17°C16 mph, NW54%10000m1004hPa62%
21-Jun-2024 21:00Overcast Clouds17°C7 mph, NW94%10000m1003hPa59%
22-Jun-2024 00:00Broken Clouds12°C7 mph, SE55%10000m1006hPa74%
22-Jun-2024 03:00Clear Sky11°C7 mph, E9%10000m1006hPa85%
22-Jun-2024 06:00Few Clouds11°C4 mph, E22%10000m1006hPa91%
22-Jun-2024 09:00Overcast Clouds12°C4 mph, SE100%10000m1006hPa91%
22-Jun-2024 12:00Overcast Clouds12°C4 mph, E89%10000m1007hPa89%
22-Jun-2024 15:00Scattered Clouds16°C4 mph, W46%10000m1007hPa69%
22-Jun-2024 18:00Broken Clouds15°C9 mph, W57%10000m1007hPa69%
22-Jun-2024 21:00Scattered Clouds14°C7 mph, S47%10000m1007hPa68%
23-Jun-2024 00:00Scattered Clouds11°C11 mph, SE33%10000m1011hPa84%
23-Jun-2024 03:00Light Rain7°C22 mph, SE79%10000m1015hPa82%
23-Jun-2024 06:00Light Rain7°C20 mph, SE87%10000m1017hPa74%
23-Jun-2024 09:00Overcast Clouds7°C18 mph, E97%10000m1017hPa54%
23-Jun-2024 12:00Overcast Clouds8°C18 mph, E97%10000m1018hPa38%
23-Jun-2024 15:00Overcast Clouds10°C18 mph, E100%10000m1018hPa24%
23-Jun-2024 18:00Overcast Clouds12°C18 mph, E86%10000m1017hPa22%
23-Jun-2024 21:00Few Clouds10°C18 mph, SE24%10000m1018hPa27%
24-Jun-2024 00:00Scattered Clouds7°C13 mph, E42%10000m1022hPa35%
24-Jun-2024 03:00Broken Clouds6°C11 mph, E73%10000m1024hPa37%
24-Jun-2024 06:00Broken Clouds6°C11 mph, E75%10000m1026hPa37%
24-Jun-2024 09:00Overcast Clouds5°C13 mph, E100%10000m1026hPa44%
24-Jun-2024 12:00Overcast Clouds4°C11 mph, E94%10000m1028hPa51%
24-Jun-2024 15:00Broken Clouds9°C11 mph, E60%10000m1028hPa38%
24-Jun-2024 18:00Scattered Clouds11°C13 mph, E49%10000m1025hPa38%
24-Jun-2024 21:00Broken Clouds9°C13 mph, E55%10000m1025hPa44%
25-Jun-2024 00:00Broken Clouds5°C18 mph, E54%10000m1027hPa66%
25-Jun-2024 03:00Few Clouds5°C9 mph, NE18%10000m1027hPa63%
25-Jun-2024 06:00Scattered Clouds6°C7 mph, N41%10000m1026hPa54%
25-Jun-2024 09:00Broken Clouds5°C9 mph, N61%10000m1024hPa50%
25-Jun-2024 12:00Broken Clouds5°C11 mph, N68%10000m1024hPa57%
25-Jun-2024 15:00Scattered Clouds10°C18 mph, N37%10000m1023hPa45%
25-Jun-2024 18:00Scattered Clouds11°C18 mph, N29%10000m1019hPa41%
25-Jun-2024 21:00Few Clouds10°C11 mph, N17%10000m1018hPa45%
26-Jun-2024 00:00Clear Sky7°C11 mph, N10%10000m1018hPa60%
26-Jun-2024 03:00Clear Sky7°C16 mph, N0%10000m1017hPa62%
26-Jun-2024 06:00Clear Sky6°C16 mph, N0%10000m1017hPa66%
26-Jun-2024 09:00Clear Sky6°C16 mph, N0%10000m1015hPa68%